Time;durP1;ratioP1;P1;durP2;ratioP2;P2;SDS_P1;SDS_P2;PMS_P1;PMS_P2;Temp;Humidity;BMP_temperature;BMP_pressure;BME280_temperature;BME280_humidity;BME280_pressure;Samples;Min_cycle;Max_cycle;Signal;HPM_P1;HPM_P2
2024/02/21 00:01:54;;;;;;;12.00;6.55;;;;;;;;;;6263089;28;20125;-75
2024/02/21 00:04:55;;;;;;;8.05;4.90;;;;;;;;;;6280763;28;20052;-75
2024/02/21 00:07:59;;;;;;;10.48;7.38;;;;;;;;;;6262935;28;20119;-75
2024/02/21 00:11:02;;;;;;;12.63;7.78;;;;;;;;;;6263074;28;20125;-75
2024/02/21 00:14:04;;;;;;;14.60;8.18;;;;;;;;;;6242833;28;20086;-75
2024/02/21 00:17:08;;;;;;;14.63;7.47;;;;;;;;;;6250732;28;20051;-76
2024/02/21 00:20:10;;;;;;;11.35;7.00;;;;;;;;;;6261440;28;20045;-75
2024/02/21 00:23:13;;;;;;;13.70;8.30;;;;;;;;;;6284729;28;20049;-74
2024/02/21 00:26:14;;;;;;;16.98;8.05;;;;;;;;;;6230407;28;20526;-74
2024/02/21 00:29:17;;;;;;;16.60;9.38;;;;;;;;;;6276780;28;20045;-75
2024/02/21 00:32:20;;;;;;;18.63;10.07;;;;;;;;;;6245825;28;20052;-75
2024/02/21 00:35:22;;;;;;;13.60;8.70;;;;;;;;;;6249726;28;20056;-75
2024/02/21 00:38:24;;;;;;;15.73;8.02;;;;;;;;;;6259232;28;20493;-75
2024/02/21 00:41:26;;;;;;;12.95;8.10;;;;;;;;;;6246297;28;20032;-75
2024/02/21 00:44:29;;;;;;;16.15;9.00;;;;;;;;;;6242040;28;20049;-75
2024/02/21 00:47:30;;;;;;;13.75;7.82;;;;;;;;;;6246391;28;20051;-76
2024/02/21 00:50:33;;;;;;;15.38;9.75;;;;;;;;;;6271946;28;20052;-76
2024/02/21 00:53:38;;;;;;;12.75;7.00;;;;;;;;;;6279737;28;20132;-76
2024/02/21 00:56:40;;;;;;;12.82;8.10;;;;;;;;;;6255263;28;20648;-75
2024/02/21 00:59:42;;;;;;;14.70;9.35;;;;;;;;;;6280277;28;20057;-76
2024/02/21 01:02:45;;;;;;;12.55;7.88;;;;;;;;;;6244408;28;20052;-76
2024/02/21 01:05:47;;;;;;;14.10;7.80;;;;;;;;;;6255341;28;20612;-75
2024/02/21 01:08:49;;;;;;;16.55;8.63;;;;;;;;;;6262642;28;20040;-76
2024/02/21 01:11:52;;;;;;;13.68;8.20;;;;;;;;;;6246574;28;20060;-75
2024/02/21 01:14:55;;;;;;;12.63;6.85;;;;;;;;;;6258613;28;20075;-75
2024/02/21 01:17:56;;;;;;;16.17;9.05;;;;;;;;;;6258284;28;20231;-76
2024/02/21 01:20:59;;;;;;;13.23;8.05;;;;;;;;;;6280539;28;20808;-75
2024/02/21 01:24:02;;;;;;;10.55;6.57;;;;;;;;;;6277720;28;20044;-76
2024/02/21 01:27:04;;;;;;;11.90;7.85;;;;;;;;;;6258486;28;20032;-75
2024/02/21 01:30:08;;;;;;;10.95;8.00;;;;;;;;;;6271143;28;20625;-75
2024/02/21 01:33:10;;;;;;;13.55;8.43;;;;;;;;;;6255779;28;20534;-76
2024/02/21 01:36:12;;;;;;;10.82;7.43;;;;;;;;;;6244743;28;20082;-76
2024/02/21 01:39:15;;;;;;;14.57;7.72;;;;;;;;;;6248452;28;20048;-75
2024/02/21 01:42:17;;;;;;;12.25;7.05;;;;;;;;;;6231376;28;20053;-75
2024/02/21 01:45:19;;;;;;;11.10;6.38;;;;;;;;;;6265118;28;20053;-74
2024/02/21 01:48:23;;;;;;;15.80;8.50;;;;;;;;;;6229257;28;20831;-75
2024/02/21 01:51:25;;;;;;;11.80;6.80;;;;;;;;;;6233099;28;20075;-76
2024/02/21 01:54:28;;;;;;;11.20;6.88;;;;;;;;;;6268940;28;20909;-75
2024/02/21 01:57:31;;;;;;;11.57;6.88;;;;;;;;;;6241518;28;20094;-75
2024/02/21 02:00:33;;;;;;;14.23;9.15;;;;;;;;;;6260313;28;20064;-75
2024/02/21 02:03:36;;;;;;;14.93;9.45;;;;;;;;;;6248033;28;20432;-76
2024/02/21 02:06:40;;;;;;;14.50;8.30;;;;;;;;;;6256280;28;20533;-75
2024/02/21 02:09:43;;;;;;;12.65;7.97;;;;;;;;;;6256180;28;20041;-75
2024/02/21 02:12:45;;;;;;;11.95;8.25;;;;;;;;;;6246213;28;20044;-75
2024/02/21 02:15:48;;;;;;;12.75;8.82;;;;;;;;;;6239789;28;20158;-76
2024/02/21 02:18:50;;;;;;;13.40;7.03;;;;;;;;;;6245615;28;20441;-75
2024/02/21 02:22:17;;;;;;;11.05;7.15;;;;;;;;;;6239484;28;20588;-76
2024/02/21 02:25:19;;;;;;;14.00;9.15;;;;;;;;;;6255075;28;20580;-75
2024/02/21 02:28:22;;;;;;;9.07;6.15;;;;;;;;;;6256619;28;20040;-76
2024/02/21 02:31:24;;;;;;;10.50;6.40;;;;;;;;;;6261911;28;20049;-75
2024/02/21 02:34:26;;;;;;;16.42;10.00;;;;;;;;;;6251299;28;20055;-75
2024/02/21 02:37:30;;;;;;;14.80;10.48;;;;;;;;;;6253849;28;20048;-75
2024/02/21 02:40:35;;;;;;;16.77;8.95;;;;;;;;;;6246520;28;20137;-76
2024/02/21 02:43:39;;;;;;;12.93;7.95;;;;;;;;;;6260757;28;20470;-75
2024/02/21 02:46:41;;;;;;;12.82;7.95;;;;;;;;;;6262556;28;20049;-76
2024/02/21 02:49:44;;;;;;;13.43;9.18;;;;;;;;;;6260183;28;20032;-76
2024/02/21 02:52:48;;;;;;;12.20;8.30;;;;;;;;;;6277423;28;20045;-75
2024/02/21 02:55:50;;;;;;;15.30;8.38;;;;;;;;;;6263045;28;20068;-75
2024/02/21 02:58:52;;;;;;;18.05;8.93;;;;;;;;;;6263500;28;20057;-75
2024/02/21 03:01:55;;;;;;;15.25;7.93;;;;;;;;;;6280422;28;20052;-75
2024/02/21 03:04:57;;;;;;;13.02;7.55;;;;;;;;;;6223896;28;20522;-76
2024/02/21 03:07:59;;;;;;;14.38;9.25;;;;;;;;;;6262530;28;20059;-76
2024/02/21 03:11:01;;;;;;;18.10;9.70;;;;;;;;;;6261027;28;20059;-75
2024/02/21 03:14:04;;;;;;;16.98;10.10;;;;;;;;;;6276546;28;20181;-76
2024/02/21 03:17:06;;;;;;;18.73;10.07;;;;;;;;;;6248984;28;20062;-76
2024/02/21 03:20:09;;;;;;;17.55;9.40;;;;;;;;;;6265071;28;20051;-76
2024/02/21 03:23:13;;;;;;;16.65;10.07;;;;;;;;;;6248900;28;20714;-76
2024/02/21 03:26:17;;;;;;;16.38;9.73;;;;;;;;;;6267433;28;20538;-76
2024/02/21 03:29:19;;;;;;;19.05;10.98;;;;;;;;;;6267037;28;20784;-75
2024/02/21 03:32:22;;;;;;;15.07;8.32;;;;;;;;;;6261847;28;20068;-76
2024/02/21 03:35:26;;;;;;;18.13;9.00;;;;;;;;;;6235742;28;20119;-76
2024/02/21 03:38:29;;;;;;;18.33;11.77;;;;;;;;;;6257052;28;20045;-75
2024/02/21 03:41:31;;;;;;;14.07;8.90;;;;;;;;;;6261441;28;20067;-76
2024/02/21 03:44:33;;;;;;;15.95;8.82;;;;;;;;;;6267654;28;20060;-76
2024/02/21 03:47:36;;;;;;;13.10;7.97;;;;;;;;;;6248266;28;20140;-76
2024/02/21 03:50:38;;;;;;;11.35;7.47;;;;;;;;;;6234403;28;20052;-75
2024/02/21 03:53:41;;;;;;;13.60;7.82;;;;;;;;;;6283556;28;20102;-75
2024/02/21 03:56:43;;;;;;;14.43;8.50;;;;;;;;;;6245553;28;20076;-76
2024/02/21 03:59:45;;;;;;;18.83;10.90;;;;;;;;;;6234628;28;20892;-75
2024/02/21 04:02:47;;;;;;;17.33;9.27;;;;;;;;;;6285463;28;20446;-76
2024/02/21 04:05:50;;;;;;;17.55;8.43;;;;;;;;;;6256444;28;20454;-76
2024/02/21 04:08:52;;;;;;;15.50;8.45;;;;;;;;;;6245876;28;20052;-76
2024/02/21 04:11:55;;;;;;;14.80;8.68;;;;;;;;;;6266656;28;20252;-75
2024/02/21 04:14:57;;;;;;;16.95;10.27;;;;;;;;;;6264490;28;20487;-75
2024/02/21 04:17:59;;;;;;;22.17;13.27;;;;;;;;;;6240665;28;20048;-76
2024/02/21 04:21:01;;;;;;;19.67;10.77;;;;;;;;;;6246542;28;20657;-76
2024/02/21 04:24:05;;;;;;;18.27;10.68;;;;;;;;;;6250573;28;20055;-75
2024/02/21 04:27:08;;;;;;;15.38;10.05;;;;;;;;;;6260120;28;20067;-75
2024/02/21 04:30:11;;;;;;;19.38;12.75;;;;;;;;;;6282555;28;20101;-74
2024/02/21 04:33:14;;;;;;;17.33;9.40;;;;;;;;;;6265008;28;20048;-75
2024/02/21 04:36:21;;;;;;;13.73;9.65;;;;;;;;;;6254670;28;20127;-76
2024/02/21 04:39:25;;;;;;;17.20;9.23;;;;;;;;;;6258283;28;20037;-74
2024/02/21 04:42:27;;;;;;;18.73;11.35;;;;;;;;;;6247207;28;20049;-74
2024/02/21 04:45:29;;;;;;;15.90;9.98;;;;;;;;;;6277322;28;20043;-74
2024/02/21 04:48:31;;;;;;;62.10;28.30;;;;;;;;;;6256670;28;20044;-74
2024/02/21 04:51:34;;;;;;;23.25;12.23;;;;;;;;;;6243591;28;20449;-75
2024/02/21 04:54:38;;;;;;;15.07;9.00;;;;;;;;;;6263517;28;20051;-75
2024/02/21 04:57:40;;;;;;;16.50;9.40;;;;;;;;;;6262564;28;20056;-75
2024/02/21 05:00:43;;;;;;;17.83;10.70;;;;;;;;;;6271543;28;20057;-75
2024/02/21 05:03:46;;;;;;;17.02;10.57;;;;;;;;;;6262577;28;20060;-75
2024/02/21 05:06:48;;;;;;;18.17;11.00;;;;;;;;;;6262025;28;20067;-75
2024/02/21 05:09:51;;;;;;;18.75;11.63;;;;;;;;;;6276087;28;20533;-76
2024/02/21 05:12:53;;;;;;;23.92;18.15;;;;;;;;;;6261119;28;20780;-75
2024/02/21 05:15:55;;;;;;;20.40;16.00;;;;;;;;;;6246441;28;20763;-75
2024/02/21 05:18:57;;;;;;;17.65;11.18;;;;;;;;;;6270227;28;20688;-74
2024/02/21 05:21:59;;;;;;;18.25;11.85;;;;;;;;;;6261090;28;20204;-74
2024/02/21 05:25:01;;;;;;;18.05;10.48;;;;;;;;;;6274289;28;20052;-72
2024/02/21 05:28:06;;;;;;;14.05;8.77;;;;;;;;;;6251145;28;20130;-75
2024/02/21 05:31:08;;;;;;;18.58;10.90;;;;;;;;;;6227045;28;20036;-75
2024/02/21 05:34:11;;;;;;;16.10;9.90;;;;;;;;;;6258406;28;20053;-75
2024/02/21 05:37:13;;;;;;;17.15;11.55;;;;;;;;;;6259184;28;20048;-75
2024/02/21 05:40:15;;;;;;;17.58;9.63;;;;;;;;;;6247906;28;20114;-75
2024/02/21 05:43:17;;;;;;;18.50;11.68;;;;;;;;;;6278382;28;20044;-74
2024/02/21 05:46:19;;;;;;;22.90;12.40;;;;;;;;;;6241926;28;20064;-75
2024/02/21 05:49:21;;;;;;;18.48;11.32;;;;;;;;;;6259044;28;20049;-74
2024/02/21 05:52:24;;;;;;;18.90;10.07;;;;;;;;;;6261919;28;20528;-75
2024/02/21 05:55:27;;;;;;;21.63;10.80;;;;;;;;;;6263546;28;20047;-75
2024/02/21 05:58:31;;;;;;;20.40;13.20;;;;;;;;;;6256795;28;20041;-77
2024/02/21 06:01:33;;;;;;;37.95;18.73;;;;;;;;;;6281396;28;20583;-76
2024/02/21 06:04:36;;;;;;;23.55;13.82;;;;;;;;;;6228817;28;20041;-75
2024/02/21 06:07:38;;;;;;;23.10;13.27;;;;;;;;;;6262122;28;20044;-76
2024/02/21 06:10:41;;;;;;;23.90;14.35;;;;;;;;;;6226886;28;20254;-76
2024/02/21 06:13:43;;;;;;;22.90;13.93;;;;;;;;;;6278969;28;20052;-75
2024/02/21 06:16:45;;;;;;;20.80;13.60;;;;;;;;;;6258317;28;20052;-75
2024/02/21 06:19:47;;;;;;;24.70;14.02;;;;;;;;;;6277370;28;20049;-75
2024/02/21 06:22:49;;;;;;;20.67;13.32;;;;;;;;;;6256548;28;20052;-78
2024/02/21 06:25:52;;;;;;;18.60;12.45;;;;;;;;;;6237520;28;20926;-76
2024/02/21 06:28:54;;;;;;;20.08;12.57;;;;;;;;;;6256784;28;20105;-77
2024/02/21 06:31:58;;;;;;;27.48;14.57;;;;;;;;;;6227314;28;20708;-76
2024/02/21 06:35:01;;;;;;;63.55;29.52;;;;;;;;;;6238048;28;20056;-76
2024/02/21 06:38:04;;;;;;;45.90;25.13;;;;;;;;;;6230280;28;20055;-76
2024/02/21 06:41:18;;;;;;;34.08;19.20;;;;;;;;;;6244611;28;20881;-76
2024/02/21 06:44:22;;;;;;;21.38;13.20;;;;;;;;;;6263542;28;20079;-77
2024/02/21 06:47:24;;;;;;;20.35;13.18;;;;;;;;;;6281373;28;20052;-77
2024/02/21 06:50:26;;;;;;;24.60;14.30;;;;;;;;;;6259046;28;20032;-77
2024/02/21 06:53:29;;;;;;;25.35;14.57;;;;;;;;;;6250687;28;20044;-77
2024/02/21 06:56:31;;;;;;;33.08;17.95;;;;;;;;;;6252767;28;20055;-75
2024/02/21 06:59:33;;;;;;;30.10;19.42;;;;;;;;;;6281199;28;20049;-76
2024/02/21 07:02:36;;;;;;;25.65;17.13;;;;;;;;;;6263360;28;20041;-76
2024/02/21 07:05:38;;;;;;;26.63;15.43;;;;;;;;;;6279911;28;20390;-76
2024/02/21 07:08:42;;;;;;;25.27;15.13;;;;;;;;;;6244396;28;20529;-75
2024/02/21 07:11:44;;;;;;;24.25;14.95;;;;;;;;;;6245640;28;20608;-75
2024/02/21 07:14:46;;;;;;;19.95;13.15;;;;;;;;;;6267739;28;20560;-75
2024/02/21 07:17:49;;;;;;;20.15;13.15;;;;;;;;;;6268805;28;20051;-75
2024/02/21 07:20:52;;;;;;;19.90;12.30;;;;;;;;;;6252405;28;20048;-76
2024/02/21 07:23:54;;;;;;;22.38;13.30;;;;;;;;;;6259244;28;20129;-75
2024/02/21 07:26:56;;;;;;;21.05;12.88;;;;;;;;;;6232175;28;20865;-76
2024/02/21 07:29:59;;;;;;;25.45;14.52;;;;;;;;;;6260152;28;20037;-76
2024/02/21 07:33:02;;;;;;;18.60;12.32;;;;;;;;;;6276880;28;20563;-76
2024/02/21 07:36:09;;;;;;;20.30;13.88;;;;;;;;;;6268565;28;20186;-76
2024/02/21 07:39:12;;;;;;;27.42;15.57;;;;;;;;;;6259019;28;20080;-75
2024/02/21 07:42:15;;;;;;;19.17;12.73;;;;;;;;;;6264800;28;20047;-75
2024/02/21 07:45:21;;;;;;;18.42;10.98;;;;;;;;;;6265467;28;20520;-75
2024/02/21 07:48:26;;;;;;;20.90;12.38;;;;;;;;;;6262366;28;20505;-75
2024/02/21 07:51:29;;;;;;;19.92;12.57;;;;;;;;;;6277122;28;20041;-75
2024/02/21 07:54:31;;;;;;;21.25;12.07;;;;;;;;;;6244742;28;20189;-75
2024/02/21 07:57:33;;;;;;;20.77;11.73;;;;;;;;;;6243574;28;20057;-75
2024/02/21 08:00:36;;;;;;;32.85;16.27;;;;;;;;;;6265088;28;20055;-75
2024/02/21 08:03:38;;;;;;;18.00;10.15;;;;;;;;;;6262910;28;20064;-76
2024/02/21 08:06:40;;;;;;;16.48;9.80;;;;;;;;;;6263524;28;20044;-76
2024/02/21 08:09:42;;;;;;;15.93;10.63;;;;;;;;;;6233072;28;20079;-76
2024/02/21 08:12:44;;;;;;;26.60;13.90;;;;;;;;;;6279825;28;20055;-76
2024/02/21 08:15:47;;;;;;;14.07;9.57;;;;;;;;;;6253123;28;20087;-76
2024/02/21 08:18:49;;;;;;;17.67;9.57;;;;;;;;;;6250240;28;20060;-76
2024/02/21 08:21:52;;;;;;;17.50;10.18;;;;;;;;;;6255086;28;20143;-76
2024/02/21 08:24:54;;;;;;;30.88;15.93;;;;;;;;;;6239973;28;20083;-76
2024/02/21 08:27:59;;;;;;;19.30;11.48;;;;;;;;;;6272747;28;20051;-76
2024/02/21 08:31:02;;;;;;;12.48;8.10;;;;;;;;;;6277174;28;20521;-77
2024/02/21 08:34:04;;;;;;;13.50;8.35;;;;;;;;;;6247769;28;20057;-75
2024/02/21 08:37:06;;;;;;;17.52;11.35;;;;;;;;;;6279735;28;20684;-76
2024/02/21 08:40:09;;;;;;;17.40;10.73;;;;;;;;;;6245662;28;20086;-75
2024/02/21 08:43:12;;;;;;;20.50;12.25;;;;;;;;;;6283610;28;20554;-75
2024/02/21 08:46:14;;;;;;;20.38;14.20;;;;;;;;;;6244234;28;20044;-74
2024/02/21 08:49:17;;;;;;;20.55;12.18;;;;;;;;;;6230905;28;20657;-75
2024/02/21 08:52:19;;;;;;;27.48;17.30;;;;;;;;;;6261507;28;20044;-75
2024/02/21 08:55:22;;;;;;;18.08;11.18;;;;;;;;;;6254431;28;20048;-76
2024/02/21 08:58:26;;;;;;;25.00;14.15;;;;;;;;;;6267462;28;20064;-77
2024/02/21 09:01:29;;;;;;;24.83;14.13;;;;;;;;;;6233586;28;20045;-77
2024/02/21 09:04:31;;;;;;;29.90;16.05;;;;;;;;;;6246773;28;20040;-76
2024/02/21 09:07:34;;;;;;;14.60;10.40;;;;;;;;;;6270143;28;20153;-75
2024/02/21 09:10:37;;;;;;;22.17;14.13;;;;;;;;;;6258136;28;20123;-75
2024/02/21 09:13:39;;;;;;;24.50;13.35;;;;;;;;;;6248595;28;20052;-76
2024/02/21 09:16:44;;;;;;;30.55;17.35;;;;;;;;;;6257632;28;20041;-76
2024/02/21 09:19:48;;;;;;;30.40;15.65;;;;;;;;;;6285632;28;20075;-75
2024/02/21 09:22:52;;;;;;;20.95;13.25;;;;;;;;;;6246120;28;20084;-74
2024/02/21 09:25:55;;;;;;;21.45;10.75;;;;;;;;;;6243047;28;20057;-75
2024/02/21 09:28:57;;;;;;;21.70;14.18;;;;;;;;;;6259772;28;20545;-75
2024/02/21 09:32:00;;;;;;;18.65;11.60;;;;;;;;;;6275955;28;20060;-75
2024/02/21 09:35:02;;;;;;;18.90;10.60;;;;;;;;;;6267278;28;20099;-75
2024/02/21 09:38:06;;;;;;;14.18;9.43;;;;;;;;;;6254128;28;20037;-75
2024/02/21 09:41:32;;;;;;;18.55;11.50;;;;;;;;;;6284811;28;20048;-75
2024/02/21 09:44:43;;;;;;;15.20;9.05;;;;;;;;;;6250239;28;20052;-75
2024/02/21 09:48:17;;;;;;;20.00;11.88;;;;;;;;;;6250212;28;20048;-75
2024/02/21 09:51:21;;;;;;;11.93;5.88;;;;;;;;;;6240874;28;20055;-77
2024/02/21 09:54:24;;;;;;;19.40;11.88;;;;;;;;;;6262827;28;20141;-77
2024/02/21 09:57:26;;;;;;;20.00;9.05;;;;;;;;;;6286485;28;20174;-76
2024/02/21 10:00:28;;;;;;;17.00;10.38;;;;;;;;;;6256940;28;20048;-76
2024/02/21 10:03:30;;;;;;;16.20;10.18;;;;;;;;;;6268391;28;20461;-75
2024/02/21 10:06:32;;;;;;;15.45;9.98;;;;;;;;;;6272289;28;20059;-75
2024/02/21 10:09:35;;;;;;;15.95;10.52;;;;;;;;;;6270381;28;20163;-75
2024/02/21 10:12:49;;;;;;;19.08;10.82;;;;;;;;;;6273901;28;20060;-75
2024/02/21 10:16:07;;;;;;;15.05;9.75;;;;;;;;;;6250779;28;20060;-76
2024/02/21 10:19:20;;;;;;;12.20;7.90;;;;;;;;;;6248924;28;20044;-77
2024/02/21 10:22:25;;;;;;;12.82;7.30;;;;;;;;;;6266532;28;20044;-76
2024/02/21 10:25:27;;;;;;;11.85;7.45;;;;;;;;;;6264524;28;20135;-76
2024/02/21 10:28:31;;;;;;;13.10;7.50;;;;;;;;;;6265816;28;20040;-76
2024/02/21 10:31:34;;;;;;;12.90;7.78;;;;;;;;;;6254332;28;20063;-75
2024/02/21 10:34:39;;;;;;;14.02;7.03;;;;;;;;;;6280531;28;20522;-75
2024/02/21 10:37:41;;;;;;;12.68;6.95;;;;;;;;;;6236402;28;20591;-76
2024/02/21 10:40:44;;;;;;;9.15;5.50;;;;;;;;;;6242133;28;20524;-75
2024/02/21 10:43:54;;;;;;;10.30;6.30;;;;;;;;;;6261283;28;20044;-75
2024/02/21 10:46:58;;;;;;;16.98;9.20;;;;;;;;;;6231335;28;20091;-76
2024/02/21 10:50:05;;;;;;;74.93;29.38;;;;;;;;;;6251280;28;20056;-77
2024/02/21 10:53:41;;;;;;;7.60;4.20;;;;;;;;;;6292019;28;20048;-76
2024/02/21 10:56:45;;;;;;;14.20;8.15;;;;;;;;;;6270142;28;20048;-76
2024/02/21 10:59:48;;;;;;;14.43;8.45;;;;;;;;;;6271046;28;20044;-76
2024/02/21 11:02:50;;;;;;;12.57;8.00;;;;;;;;;;6281606;28;20063;-76
2024/02/21 11:05:53;;;;;;;11.38;6.85;;;;;;;;;;6253872;28;20052;-77
2024/02/21 11:09:29;;;;;;;14.00;7.78;;;;;;;;;;6252376;28;20071;-78
2024/02/21 11:12:32;;;;;;;12.48;7.38;;;;;;;;;;6252058;28;20570;-78
2024/02/21 11:15:35;;;;;;;12.02;7.28;;;;;;;;;;6245596;28;20049;-78
2024/02/21 11:18:39;;;;;;;8.95;5.53;;;;;;;;;;6237924;28;20052;-76
2024/02/21 11:21:43;;;;;;;8.07;5.35;;;;;;;;;;6283483;28;20319;-77
2024/02/21 11:24:46;;;;;;;12.38;7.72;;;;;;;;;;6232863;28;20167;-78
2024/02/21 11:27:49;;;;;;;13.60;7.72;;;;;;;;;;6261754;28;20230;-77
2024/02/21 11:30:54;;;;;;;17.50;9.43;;;;;;;;;;6275412;28;20530;-78
2024/02/21 11:34:00;;;;;;;11.70;7.75;;;;;;;;;;6244271;28;20106;-78
2024/02/21 11:37:13;;;;;;;12.60;7.95;;;;;;;;;;6261858;28;20044;-78
2024/02/21 11:40:19;;;;;;;11.80;8.00;;;;;;;;;;6238611;28;20041;-78
2024/02/21 11:43:21;;;;;;;9.32;6.40;;;;;;;;;;6266187;28;20040;-77
2024/02/21 11:46:25;;;;;;;14.23;9.82;;;;;;;;;;6267817;28;20071;-77
2024/02/21 11:49:28;;;;;;;15.73;8.68;;;;;;;;;;6280676;28;20033;-77
2024/02/21 11:52:31;;;;;;;11.43;5.20;;;;;;;;;;6243235;28;20064;-77
2024/02/21 11:55:34;;;;;;;13.25;7.70;;;;;;;;;;6246351;28;20071;-78
2024/02/21 11:58:36;;;;;;;9.65;6.13;;;;;;;;;;6245228;28;20144;-77
2024/02/21 12:01:39;;;;;;;8.23;6.03;;;;;;;;;;6255783;28;20632;-78
2024/02/21 12:04:43;;;;;;;20.60;11.10;;;;;;;;;;6264614;28;20053;-77
2024/02/21 12:07:46;;;;;;;21.98;9.77;;;;;;;;;;6262204;28;20076;-76
2024/02/21 12:10:51;;;;;;;14.95;6.63;;;;;;;;;;6248860;28;20048;-76
2024/02/21 12:14:05;;;;;;;7.35;4.40;;;;;;;;;;6266131;28;20077;-77
2024/02/21 12:17:07;;;;;;;11.65;5.68;;;;;;;;;;6253211;28;20056;-77
2024/02/21 12:20:11;;;;;;;15.93;7.38;;;;;;;;;;6224998;28;20101;-76
2024/02/21 12:23:13;;;;;;;13.10;6.65;;;;;;;;;;6243644;28;20090;-76
2024/02/21 12:26:16;;;;;;;13.63;6.85;;;;;;;;;;6246470;28;20056;-77
2024/02/21 12:29:19;;;;;;;6.90;4.13;;;;;;;;;;6245934;28;20875;-77
2024/02/21 12:32:23;;;;;;;8.90;4.95;;;;;;;;;;6250851;28;20101;-76
2024/02/21 12:35:26;;;;;;;9.40;6.38;;;;;;;;;;6270384;28;20045;-76
2024/02/21 12:38:28;;;;;;;10.60;6.38;;;;;;;;;;6278490;28;20056;-75
2024/02/21 12:41:32;;;;;;;8.65;4.80;;;;;;;;;;6261978;28;20045;-77
2024/02/21 12:44:34;;;;;;;12.98;5.70;;;;;;;;;;6234027;28;20144;-76
2024/02/21 12:47:36;;;;;;;11.50;7.28;;;;;;;;;;6253854;28;20048;-76
2024/02/21 12:50:39;;;;;;;9.00;6.57;;;;;;;;;;6283834;28;20587;-76
2024/02/21 12:53:42;;;;;;;8.13;4.38;;;;;;;;;;6232287;28;20143;-75
2024/02/21 12:56:44;;;;;;;9.35;5.38;;;;;;;;;;6278679;28;20052;-76
2024/02/21 12:59:49;;;;;;;8.68;6.05;;;;;;;;;;6289091;28;20557;-75
2024/02/21 13:02:51;;;;;;;12.90;6.85;;;;;;;;;;6265256;28;20402;-76
2024/02/21 13:05:53;;;;;;;9.75;5.40;;;;;;;;;;6252162;28;20049;-75
2024/02/21 13:08:55;;;;;;;9.63;6.35;;;;;;;;;;6269252;28;20522;-76
2024/02/21 13:11:58;;;;;;;4.82;3.35;;;;;;;;;;6269026;28;20137;-76
2024/02/21 13:15:01;;;;;;;7.03;3.65;;;;;;;;;;6229938;28;20048;-76
2024/02/21 13:18:04;;;;;;;10.70;5.50;;;;;;;;;;6254131;28;20193;-76
2024/02/21 13:21:09;;;;;;;7.93;5.63;;;;;;;;;;6248396;28;20033;-78
2024/02/21 13:24:11;;;;;;;9.13;5.43;;;;;;;;;;6281286;28;20098;-77
2024/02/21 13:27:14;;;;;;;11.48;5.00;;;;;;;;;;6286640;28;20539;-77
2024/02/21 13:30:17;;;;;;;8.45;4.30;;;;;;;;;;6268393;28;20051;-77
2024/02/21 13:33:19;;;;;;;9.10;6.20;;;;;;;;;;6260366;28;20051;-77
2024/02/21 13:36:22;;;;;;;8.10;4.57;;;;;;;;;;6266323;28;20137;-76
2024/02/21 13:39:24;;;;;;;9.30;6.40;;;;;;;;;;6246488;28;20052;-78
2024/02/21 13:42:27;;;;;;;9.32;5.00;;;;;;;;;;6242992;28;20056;-77
2024/02/21 13:45:31;;;;;;;8.10;5.32;;;;;;;;;;6286417;28;20056;-78
2024/02/21 13:48:35;;;;;;;9.32;4.80;;;;;;;;;;6245701;28;20056;-77
2024/02/21 13:51:40;;;;;;;10.68;5.75;;;;;;;;;;6252106;28;20036;-76
2024/02/21 13:54:42;;;;;;;14.10;6.10;;;;;;;;;;6237836;28;20056;-77
2024/02/21 13:57:45;;;;;;;16.60;8.07;;;;;;;;;;6248830;28;20052;-77
2024/02/21 14:00:47;;;;;;;9.35;6.05;;;;;;;;;;6268055;28;20040;-76
2024/02/21 14:03:49;;;;;;;9.77;5.82;;;;;;;;;;6235008;28;20041;-76
2024/02/21 14:06:53;;;;;;;7.72;5.43;;;;;;;;;;6248532;28;20052;-77
2024/02/21 14:09:56;;;;;;;11.55;5.45;;;;;;;;;;6262338;28;20056;-77
2024/02/21 14:12:58;;;;;;;6.55;3.53;;;;;;;;;;6253624;28;20534;-77
2024/02/21 14:16:01;;;;;;;5.03;2.97;;;;;;;;;;6247208;28;20529;-76
2024/02/21 14:19:03;;;;;;;5.88;3.80;;;;;;;;;;6269563;28;20767;-76
2024/02/21 14:22:05;;;;;;;9.00;4.70;;;;;;;;;;6249447;28;20047;-76
2024/02/21 14:25:08;;;;;;;8.20;4.10;;;;;;;;;;6248003;28;20052;-76
2024/02/21 14:28:10;;;;;;;8.77;6.13;;;;;;;;;;6267513;28;20049;-76
2024/02/21 14:31:12;;;;;;;59.13;23.38;;;;;;;;;;6268908;28;20831;-76
2024/02/21 14:34:15;;;;;;;18.85;7.38;;;;;;;;;;6252307;28;20048;-77
2024/02/21 14:37:17;;;;;;;27.85;12.23;;;;;;;;;;6261868;28;20768;-75
2024/02/21 14:40:20;;;;;;;17.63;7.30;;;;;;;;;;6282231;28;20028;-75
2024/02/21 14:43:23;;;;;;;8.07;5.15;;;;;;;;;;6263909;28;20045;-75
2024/02/21 14:46:28;;;;;;;8.75;5.90;;;;;;;;;;6265979;28;20068;-75
2024/02/21 14:49:30;;;;;;;22.02;10.20;;;;;;;;;;6272186;28;20182;-75
2024/02/21 14:52:33;;;;;;;17.67;8.32;;;;;;;;;;6260055;28;20051;-75
2024/02/21 14:55:35;;;;;;;10.43;6.15;;;;;;;;;;6268150;28;20056;-75
2024/02/21 14:58:37;;;;;;;10.48;6.53;;;;;;;;;;6278161;28;20049;-76
2024/02/21 15:01:39;;;;;;;8.85;4.90;;;;;;;;;;6263860;28;20517;-75
2024/02/21 15:04:42;;;;;;;7.97;3.90;;;;;;;;;;6277473;28;20052;-75
2024/02/21 15:07:45;;;;;;;12.90;7.28;;;;;;;;;;6265553;28;20131;-76
2024/02/21 15:10:47;;;;;;;9.82;5.20;;;;;;;;;;6263082;28;20139;-75
2024/02/21 15:13:50;;;;;;;8.02;5.78;;;;;;;;;;6286565;28;20055;-77
2024/02/21 15:16:52;;;;;;;8.07;4.47;;;;;;;;;;6273312;28;20064;-75
2024/02/21 15:19:55;;;;;;;8.05;6.13;;;;;;;;;;6284387;28;20049;-76
2024/02/21 15:22:58;;;;;;;7.30;5.38;;;;;;;;;;6237050;28;20485;-76
2024/02/21 15:26:01;;;;;;;9.90;5.80;;;;;;;;;;6266528;28;20052;-75
2024/02/21 15:29:05;;;;;;;9.20;5.13;;;;;;;;;;6263379;28;20060;-76
2024/02/21 15:32:09;;;;;;;12.80;5.68;;;;;;;;;;6265316;28;20167;-76
2024/02/21 15:35:13;;;;;;;14.70;7.70;;;;;;;;;;6285188;28;20047;-75
2024/02/21 15:38:16;;;;;;;11.05;6.20;;;;;;;;;;6286159;28;20045;-75
2024/02/21 15:41:21;;;;;;;13.82;7.70;;;;;;;;;;6252513;28;20430;-75
2024/02/21 15:44:23;;;;;;;;;;;;;;;;;;6290475;28;20036;-79
2024/02/21 15:47:27;;;;;;;7.15;4.10;;;;;;;;;;6248535;28;19931;-75
2024/02/21 15:50:30;;;;;;;8.40;4.40;;;;;;;;;;6282963;28;20524;-76
2024/02/21 15:53:32;;;;;;;11.43;7.72;;;;;;;;;;6265218;28;20445;-76
2024/02/21 15:56:34;;;;;;;9.90;5.97;;;;;;;;;;6266513;28;20067;-76
2024/02/21 15:59:36;;;;;;;9.80;6.07;;;;;;;;;;6254164;28;20056;-76
2024/02/21 16:02:41;;;;;;;13.32;8.73;;;;;;;;;;6255506;28;20040;-76
2024/02/21 16:05:43;;;;;;;19.33;11.32;;;;;;;;;;6247175;28;20056;-76
2024/02/21 16:08:47;;;;;;;25.35;14.10;;;;;;;;;;6244861;28;20060;-77
2024/02/21 16:11:49;;;;;;;28.48;16.17;;;;;;;;;;6273058;28;20100;-76
2024/02/21 16:14:52;;;;;;;34.05;17.98;;;;;;;;;;6268814;28;20048;-76
2024/02/21 16:17:54;;;;;;;18.38;11.63;;;;;;;;;;6271682;28;20048;-76
2024/02/21 16:20:57;;;;;;;28.83;17.50;;;;;;;;;;6272312;28;20519;-76
2024/02/21 16:24:00;;;;;;;21.33;12.93;;;;;;;;;;6249911;28;20048;-77
2024/02/21 16:27:08;;;;;;;21.65;11.18;;;;;;;;;;6257784;28;20051;-77
2024/02/21 16:30:12;;;;;;;16.77;10.45;;;;;;;;;;6251433;28;20052;-76
2024/02/21 16:33:16;;;;;;;22.77;13.57;;;;;;;;;;6278962;28;20582;-76
2024/02/21 16:36:25;;;;;;;16.73;11.55;;;;;;;;;;6283453;28;20116;-76
2024/02/21 16:39:31;;;;;;;31.30;18.50;;;;;;;;;;6267910;28;20048;-76
2024/02/21 16:42:34;;;;;;;41.50;23.25;;;;;;;;;;6254244;28;20595;-76
2024/02/21 16:45:36;;;;;;;40.90;20.95;;;;;;;;;;6289436;28;20040;-77
2024/02/21 16:48:39;;;;;;;19.30;11.27;;;;;;;;;;6257000;28;20708;-76
2024/02/21 16:51:41;;;;;;;22.73;12.35;;;;;;;;;;6231400;28;20060;-76
2024/02/21 16:54:44;;;;;;;26.55;13.93;;;;;;;;;;6280345;28;20049;-76
2024/02/21 16:57:46;;;;;;;18.33;11.27;;;;;;;;;;6261146;28;20041;-76
2024/02/21 17:00:52;;;;;;;18.25;11.70;;;;;;;;;;6263926;28;20529;-77
2024/02/21 17:03:55;;;;;;;35.95;21.63;;;;;;;;;;6247811;28;20051;-76
2024/02/21 17:06:58;;;;;;;42.80;23.00;;;;;;;;;;6257209;28;20558;-76
2024/02/21 17:10:01;;;;;;;31.30;21.05;;;;;;;;;;6258358;28;20131;-77
2024/02/21 17:13:05;;;;;;;31.92;18.92;;;;;;;;;;6243619;28;20036;-76
2024/02/21 17:16:10;;;;;;;28.92;16.83;;;;;;;;;;6256271;28;20048;-76
2024/02/21 17:19:13;;;;;;;41.05;23.52;;;;;;;;;;6243952;28;20053;-76
2024/02/21 17:22:15;;;;;;;46.47;23.17;;;;;;;;;;6244697;28;20524;-76
2024/02/21 17:25:18;;;;;;;75.88;33.60;;;;;;;;;;6268150;28;20036;-77
2024/02/21 17:28:21;;;;;;;53.60;26.05;;;;;;;;;;6246453;28;20086;-77
2024/02/21 17:31:24;;;;;;;50.80;24.30;;;;;;;;;;6283126;28;20029;-78
2024/02/21 17:34:29;;;;;;;32.30;18.55;;;;;;;;;;6267877;28;20048;-79
2024/02/21 17:37:34;;;;;;;17.95;10.68;;;;;;;;;;6262824;28;20494;-79
2024/02/21 17:40:37;;;;;;;16.58;10.05;;;;;;;;;;6288879;28;20052;-79
2024/02/21 17:43:41;;;;;;;18.90;11.57;;;;;;;;;;6243707;28;20123;-78
2024/02/21 17:46:45;;;;;;;17.27;10.45;;;;;;;;;;6262949;28;20163;-79
2024/02/21 17:49:47;;;;;;;16.23;9.57;;;;;;;;;;6252309;28;20754;-77
2024/02/21 17:52:50;;;;;;;27.55;18.10;;;;;;;;;;6288221;28;20044;-76
2024/02/21 17:55:52;;;;;;;19.23;11.50;;;;;;;;;;6260111;28;20051;-76
2024/02/21 17:58:56;;;;;;;23.67;14.05;;;;;;;;;;6282016;28;20197;-74